sensor_id;sensor_type;location;lat;lon;timestamp;temperature;humidity
28524;DHT22;15734;50.904;6.922;2023-09-30T03:26:30;21.90;99.90
28524;DHT22;15734;50.904;6.922;2023-09-30T03:28:56;11.70;99.90
28524;DHT22;15734;50.904;6.922;2023-09-30T03:31:21;11.30;99.90
28524;DHT22;15734;50.904;6.922;2023-09-30T03:33:49;11.20;99.90
28524;DHT22;15734;50.904;6.922;2023-09-30T03:36:14;11.20;99.90
28524;DHT22;15734;50.904;6.922;2023-09-30T03:38:40;11.30;99.90
28524;DHT22;15734;50.904;6.922;2023-09-30T03:41:07;11.20;99.90
28524;DHT22;15734;50.904;6.922;2023-09-30T03:43:34;11.10;99.90
28524;DHT22;15734;50.904;6.922;2023-09-30T03:46:06;11.00;99.90
28524;DHT22;15734;50.904;6.922;2023-09-30T03:48:32;11.00;99.90
28524;DHT22;15734;50.904;6.922;2023-09-30T03:50:57;11.00;99.90
28524;DHT22;15734;50.904;6.922;2023-09-30T03:53:23;10.90;99.90
28524;DHT22;15734;50.904;6.922;2023-09-30T03:55:51;10.90;99.90
28524;DHT22;15734;50.904;6.922;2023-09-30T03:58:17;11.00;99.90
28524;DHT22;15734;50.904;6.922;2023-09-30T04:00:44;11.00;99.90
28524;DHT22;15734;50.904;6.922;2023-09-30T04:03:10;10.90;99.90
28524;DHT22;15734;50.904;6.922;2023-09-30T04:05:35;10.90;99.90
28524;DHT22;15734;50.904;6.922;2023-09-30T04:08:02;10.80;99.90
28524;DHT22;15734;50.904;6.922;2023-09-30T04:10:28;10.80;99.90
28524;DHT22;15734;50.904;6.922;2023-09-30T04:12:55;10.80;99.90
28524;DHT22;15734;50.904;6.922;2023-09-30T04:15:21;10.80;99.90
28524;DHT22;15734;50.904;6.922;2023-09-30T04:17:48;10.80;99.90
28524;DHT22;15734;50.904;6.922;2023-09-30T04:20:14;10.80;99.90
28524;DHT22;15734;50.904;6.922;2023-09-30T04:22:45;10.80;99.90
28524;DHT22;15734;50.904;6.922;2023-09-30T04:25:15;10.80;99.90
28524;DHT22;15734;50.904;6.922;2023-09-30T04:27:42;10.70;99.90
28524;DHT22;15734;50.904;6.922;2023-09-30T04:30:08;10.70;99.90
28524;DHT22;15734;50.904;6.922;2023-09-30T04:32:37;10.60;99.90
28524;DHT22;15734;50.904;6.922;2023-09-30T04:35:04;10.70;99.90
28524;DHT22;15734;50.904;6.922;2023-09-30T04:37:30;10.70;99.90
28524;DHT22;15734;50.904;6.922;2023-09-30T04:39:56;10.70;99.90
28524;DHT22;15734;50.904;6.922;2023-09-30T04:42:23;10.60;99.90
28524;DHT22;15734;50.904;6.922;2023-09-30T04:44:51;10.60;99.90
28524;DHT22;15734;50.904;6.922;2023-09-30T04:47:16;10.70;99.90
28524;DHT22;15734;50.904;6.922;2023-09-30T04:49:44;10.70;99.90
28524;DHT22;15734;50.904;6.922;2023-09-30T04:52:09;10.70;99.90
28524;DHT22;15734;50.904;6.922;2023-09-30T04:54:35;10.70;99.90
28524;DHT22;15734;50.904;6.922;2023-09-30T04:57:01;10.60;99.90
28524;DHT22;15734;50.904;6.922;2023-09-30T04:59:27;10.60;99.90
28524;DHT22;15734;50.904;6.922;2023-09-30T05:01:54;10.60;99.90
28524;DHT22;15734;50.904;6.922;2023-09-30T05:04:20;10.50;99.90
28524;DHT22;15734;50.904;6.922;2023-09-30T05:06:45;10.40;99.90
28524;DHT22;15734;50.904;6.922;2023-09-30T05:09:11;10.40;99.90
28524;DHT22;15734;50.904;6.922;2023-09-30T05:11:37;10.30;99.90
28524;DHT22;15734;50.904;6.922;2023-09-30T05:14:03;10.20;99.90
28524;DHT22;15734;50.904;6.922;2023-09-30T05:16:30;10.20;99.90
28524;DHT22;15734;50.904;6.922;2023-09-30T05:18:57;10.20;99.90
28524;DHT22;15734;50.904;6.922;2023-09-30T05:21:23;10.30;99.90
28524;DHT22;15734;50.904;6.922;2023-09-30T05:23:49;10.30;99.90
28524;DHT22;15734;50.904;6.922;2023-09-30T05:26:15;10.40;99.90
28524;DHT22;15734;50.904;6.922;2023-09-30T05:28:42;10.40;99.90
28524;DHT22;15734;50.904;6.922;2023-09-30T05:31:08;10.40;99.90
28524;DHT22;15734;50.904;6.922;2023-09-30T05:33:33;10.30;99.90
28524;DHT22;15734;50.904;6.922;2023-09-30T05:35:59;10.30;99.90
28524;DHT22;15734;50.904;6.922;2023-09-30T05:38:28;10.30;99.90
28524;DHT22;15734;50.904;6.922;2023-09-30T05:40:54;10.40;99.90
28524;DHT22;15734;50.904;6.922;2023-09-30T05:43:20;10.40;99.90
28524;DHT22;15734;50.904;6.922;2023-09-30T05:45:47;10.30;99.90
28524;DHT22;15734;50.904;6.922;2023-09-30T05:48:20;10.40;99.90
28524;DHT22;15734;50.904;6.922;2023-09-30T05:50:46;10.40;99.90
28524;DHT22;15734;50.904;6.922;2023-09-30T05:53:12;10.40;99.90
28524;DHT22;15734;50.904;6.922;2023-09-30T05:55:39;10.30;99.90
28524;DHT22;15734;50.904;6.922;2023-09-30T05:58:09;10.40;99.90
28524;DHT22;15734;50.904;6.922;2023-09-30T06:00:35;10.50;99.90
28524;DHT22;15734;50.904;6.922;2023-09-30T06:03:01;10.50;99.90
28524;DHT22;15734;50.904;6.922;2023-09-30T06:05:27;10.50;99.90
28524;DHT22;15734;50.904;6.922;2023-09-30T06:07:55;10.50;99.90
28524;DHT22;15734;50.904;6.922;2023-09-30T06:10:21;10.50;99.90
28524;DHT22;15734;50.904;6.922;2023-09-30T06:12:48;10.60;99.90
28524;DHT22;15734;50.904;6.922;2023-09-30T06:15:16;10.60;99.90
28524;DHT22;15734;50.904;6.922;2023-09-30T06:17:48;10.60;99.90
28524;DHT22;15734;50.904;6.922;2023-09-30T06:20:14;10.60;99.90
28524;DHT22;15734;50.904;6.922;2023-09-30T06:22:44;10.70;99.90
28524;DHT22;15734;50.904;6.922;2023-09-30T06:25:15;10.70;99.90
28524;DHT22;15734;50.904;6.922;2023-09-30T06:27:42;10.70;99.90
28524;DHT22;15734;50.904;6.922;2023-09-30T06:30:08;10.80;99.90
28524;DHT22;15734;50.904;6.922;2023-09-30T06:32:34;10.80;99.90
28524;DHT22;15734;50.904;6.922;2023-09-30T06:35:02;10.80;99.90
28524;DHT22;15734;50.904;6.922;2023-09-30T06:37:28;10.80;99.90
28524;DHT22;15734;50.904;6.922;2023-09-30T06:39:55;10.90;99.90
28524;DHT22;15734;50.904;6.922;2023-09-30T06:42:21;10.90;99.90
28524;DHT22;15734;50.904;6.922;2023-09-30T06:44:46;11.00;99.90
28524;DHT22;15734;50.904;6.922;2023-09-30T06:47:12;11.10;99.90
28524;DHT22;15734;50.904;6.922;2023-09-30T06:49:38;11.20;99.90
28524;DHT22;15734;50.904;6.922;2023-09-30T06:52:04;11.30;99.90
28524;DHT22;15734;50.904;6.922;2023-09-30T06:54:33;11.30;99.90
28524;DHT22;15734;50.904;6.922;2023-09-30T06:56:59;11.40;99.90
28524;DHT22;15734;50.904;6.922;2023-09-30T06:59:25;11.50;99.90
28524;DHT22;15734;50.904;6.922;2023-09-30T07:01:51;11.60;99.90
28524;DHT22;15734;50.904;6.922;2023-09-30T07:04:17;11.70;99.90
28524;DHT22;15734;50.904;6.922;2023-09-30T07:06:42;11.80;99.90
28524;DHT22;15734;50.904;6.922;2023-09-30T07:09:08;11.90;99.90
28524;DHT22;15734;50.904;6.922;2023-09-30T07:11:35;12.00;99.90
28524;DHT22;15734;50.904;6.922;2023-09-30T07:14:01;12.10;99.90
28524;DHT22;15734;50.904;6.922;2023-09-30T07:16:27;12.10;99.90
28524;DHT22;15734;50.904;6.922;2023-09-30T07:18:52;12.20;99.90
28524;DHT22;15734;50.904;6.922;2023-09-30T07:21:18;12.30;99.90
28524;DHT22;15734;50.904;6.922;2023-09-30T07:23:43;12.40;99.90
28524;DHT22;15734;50.904;6.922;2023-09-30T07:26:09;12.50;99.90
28524;DHT22;15734;50.904;6.922;2023-09-30T07:28:35;12.60;99.90
28524;DHT22;15734;50.904;6.922;2023-09-30T07:31:00;12.70;99.90
28524;DHT22;15734;50.904;6.922;2023-09-30T07:33:26;12.70;99.90
28524;DHT22;15734;50.904;6.922;2023-09-30T07:35:51;12.80;99.90
28524;DHT22;15734;50.904;6.922;2023-09-30T07:38:17;12.80;99.90
28524;DHT22;15734;50.904;6.922;2023-09-30T07:40:43;12.80;99.90
28524;DHT22;15734;50.904;6.922;2023-09-30T07:43:08;12.90;99.90
28524;DHT22;15734;50.904;6.922;2023-09-30T07:45:34;12.90;99.90
28524;DHT22;15734;50.904;6.922;2023-09-30T07:47:59;13.00;99.90
28524;DHT22;15734;50.904;6.922;2023-09-30T07:50:26;13.00;99.90
28524;DHT22;15734;50.904;6.922;2023-09-30T07:52:52;13.10;99.90
28524;DHT22;15734;50.904;6.922;2023-09-30T07:55:17;13.10;99.90
28524;DHT22;15734;50.904;6.922;2023-09-30T07:57:43;13.10;99.90
28524;DHT22;15734;50.904;6.922;2023-09-30T08:00:09;13.20;99.90
28524;DHT22;15734;50.904;6.922;2023-09-30T08:02:40;13.30;99.90
28524;DHT22;15734;50.904;6.922;2023-09-30T08:05:06;13.30;99.90
28524;DHT22;15734;50.904;6.922;2023-09-30T08:07:33;13.40;99.90
28524;DHT22;15734;50.904;6.922;2023-09-30T08:09:59;13.50;99.90
28524;DHT22;15734;50.904;6.922;2023-09-30T08:12:25;13.60;99.90
28524;DHT22;15734;50.904;6.922;2023-09-30T08:14:50;13.60;99.90
28524;DHT22;15734;50.904;6.922;2023-09-30T08:17:17;13.60;99.90
28524;DHT22;15734;50.904;6.922;2023-09-30T08:19:44;13.70;99.90
28524;DHT22;15734;50.904;6.922;2023-09-30T08:22:09;13.70;99.90
28524;DHT22;15734;50.904;6.922;2023-09-30T08:24:35;13.80;99.90
28524;DHT22;15734;50.904;6.922;2023-09-30T08:27:01;13.80;99.90
28524;DHT22;15734;50.904;6.922;2023-09-30T08:29:27;13.90;99.90
28524;DHT22;15734;50.904;6.922;2023-09-30T08:31:52;13.90;99.90
28524;DHT22;15734;50.904;6.922;2023-09-30T08:34:18;14.00;99.90
28524;DHT22;15734;50.904;6.922;2023-09-30T08:36:46;14.00;99.90
28524;DHT22;15734;50.904;6.922;2023-09-30T08:39:12;14.10;99.90
28524;DHT22;15734;50.904;6.922;2023-09-30T08:41:38;14.10;99.90
28524;DHT22;15734;50.904;6.922;2023-09-30T08:44:04;14.20;99.90
28524;DHT22;15734;50.904;6.922;2023-09-30T08:46:34;14.30;99.90
28524;DHT22;15734;50.904;6.922;2023-09-30T08:49:04;14.40;99.90
28524;DHT22;15734;50.904;6.922;2023-09-30T08:51:31;14.50;99.90
28524;DHT22;15734;50.904;6.922;2023-09-30T08:53:59;14.60;99.90
28524;DHT22;15734;50.904;6.922;2023-09-30T08:56:28;14.70;99.90
28524;DHT22;15734;50.904;6.922;2023-09-30T08:58:57;14.80;99.90
28524;DHT22;15734;50.904;6.922;2023-09-30T09:01:30;14.80;99.90
28524;DHT22;15734;50.904;6.922;2023-09-30T09:03:56;14.90;99.90
28524;DHT22;15734;50.904;6.922;2023-09-30T09:06:23;15.00;99.90
28524;DHT22;15734;50.904;6.922;2023-09-30T09:08:50;15.10;99.90
28524;DHT22;15734;50.904;6.922;2023-09-30T09:11:16;15.20;99.90
28524;DHT22;15734;50.904;6.922;2023-09-30T09:13:49;15.30;99.90
28524;DHT22;15734;50.904;6.922;2023-09-30T09:16:16;15.40;99.90
28524;DHT22;15734;50.904;6.922;2023-09-30T09:18:46;15.60;99.90
28524;DHT22;15734;50.904;6.922;2023-09-30T09:21:19;15.70;99.90
28524;DHT22;15734;50.904;6.922;2023-09-30T09:23:50;15.70;99.90
28524;DHT22;15734;50.904;6.922;2023-09-30T09:26:27;15.90;99.90
28524;DHT22;15734;50.904;6.922;2023-09-30T09:28:57;16.00;99.90
28524;DHT22;15734;50.904;6.922;2023-09-30T09:31:33;16.10;99.90
28524;DHT22;15734;50.904;6.922;2023-09-30T09:34:00;16.30;99.90
28524;DHT22;15734;50.904;6.922;2023-09-30T09:39:06;16.50;99.90
28524;DHT22;15734;50.904;6.922;2023-09-30T09:41:32;16.60;99.90
28524;DHT22;15734;50.904;6.922;2023-09-30T09:43:59;16.80;99.90
28524;DHT22;15734;50.904;6.922;2023-09-30T09:46:25;16.90;99.90
28524;DHT22;15734;50.904;6.922;2023-09-30T09:48:53;17.00;99.90
28524;DHT22;15734;50.904;6.922;2023-09-30T09:51:20;17.10;99.90
28524;DHT22;15734;50.904;6.922;2023-09-30T09:53:46;17.20;99.90
28524;DHT22;15734;50.904;6.922;2023-09-30T09:56:15;17.30;99.90
28524;DHT22;15734;50.904;6.922;2023-09-30T09:58:42;17.40;99.90
28524;DHT22;15734;50.904;6.922;2023-09-30T10:01:10;17.50;99.90
28524;DHT22;15734;50.904;6.922;2023-09-30T10:03:37;17.60;99.90
28524;DHT22;15734;50.904;6.922;2023-09-30T10:06:03;17.80;99.90
28524;DHT22;15734;50.904;6.922;2023-09-30T10:08:39;17.80;99.90
28524;DHT22;15734;50.904;6.922;2023-09-30T10:11:06;17.90;99.90
28524;DHT22;15734;50.904;6.922;2023-09-30T10:13:54;17.90;99.90
28524;DHT22;15734;50.904;6.922;2023-09-30T10:19:15;18.30;99.90
28524;DHT22;15734;50.904;6.922;2023-09-30T10:25:33;18.10;99.90
28524;DHT22;15734;50.904;6.922;2023-09-30T10:27:36;18.20;99.90
28524;DHT22;15734;50.904;6.922;2023-09-30T10:35:58;18.10;99.90
28524;DHT22;15734;50.904;6.922;2023-09-30T10:40:49;18.20;99.90
28524;DHT22;15734;50.904;6.922;2023-09-30T10:43:37;18.30;99.90
28524;DHT22;15734;50.904;6.922;2023-09-30T10:46:46;18.50;99.90
28524;DHT22;15734;50.904;6.922;2023-09-30T10:48:53;18.70;99.90
28524;DHT22;15734;50.904;6.922;2023-09-30T10:51:20;18.80;99.90
28524;DHT22;15734;50.904;6.922;2023-09-30T10:53:54;18.50;99.90
28524;DHT22;15734;50.904;6.922;2023-09-30T10:56:32;18.40;99.90
28524;DHT22;15734;50.904;6.922;2023-09-30T10:58:58;18.30;99.90
28524;DHT22;15734;50.904;6.922;2023-09-30T11:01:24;18.70;99.90
28524;DHT22;15734;50.904;6.922;2023-09-30T11:03:57;18.80;99.90
28524;DHT22;15734;50.904;6.922;2023-09-30T11:06:23;18.70;99.90
28524;DHT22;15734;50.904;6.922;2023-09-30T11:08:58;18.90;99.90
28524;DHT22;15734;50.904;6.922;2023-09-30T11:11:46;19.10;99.90
28524;DHT22;15734;50.904;6.922;2023-09-30T11:16:47;18.90;99.90
28524;DHT22;15734;50.904;6.922;2023-09-30T11:19:13;18.90;99.90
28524;DHT22;15734;50.904;6.922;2023-09-30T11:21:39;18.70;99.90
28524;DHT22;15734;50.904;6.922;2023-09-30T11:24:06;18.70;99.90
28524;DHT22;15734;50.904;6.922;2023-09-30T11:26:33;19.00;99.90
28524;DHT22;15734;50.904;6.922;2023-09-30T11:29:09;19.30;99.90
28524;DHT22;15734;50.904;6.922;2023-09-30T11:31:39;19.60;99.90
28524;DHT22;15734;50.904;6.922;2023-09-30T11:34:06;20.00;99.90
28524;DHT22;15734;50.904;6.922;2023-09-30T11:36:35;19.90;99.90
28524;DHT22;15734;50.904;6.922;2023-09-30T11:39:01;20.10;99.90
28524;DHT22;15734;50.904;6.922;2023-09-30T11:41:40;20.70;99.90
28524;DHT22;15734;50.904;6.922;2023-09-30T11:44:11;20.80;99.90
28524;DHT22;15734;50.904;6.922;2023-09-30T11:46:56;21.00;99.90
28524;DHT22;15734;50.904;6.922;2023-09-30T11:49:26;21.20;99.90
28524;DHT22;15734;50.904;6.922;2023-09-30T11:51:52;21.70;99.90
28524;DHT22;15734;50.904;6.922;2023-09-30T11:54:18;22.00;99.90
28524;DHT22;15734;50.904;6.922;2023-09-30T11:56:44;22.40;99.90
28524;DHT22;15734;50.904;6.922;2023-09-30T11:59:10;22.60;99.90
28524;DHT22;15734;50.904;6.922;2023-09-30T12:01:37;22.10;99.90
28524;DHT22;15734;50.904;6.922;2023-09-30T12:04:03;22.40;99.90
28524;DHT22;15734;50.904;6.922;2023-09-30T12:06:28;22.60;99.90
28524;DHT22;15734;50.904;6.922;2023-09-30T12:08:54;22.50;99.90
28524;DHT22;15734;50.904;6.922;2023-09-30T12:11:20;22.30;99.90
28524;DHT22;15734;50.904;6.922;2023-09-30T12:13:46;22.00;99.90
28524;DHT22;15734;50.904;6.922;2023-09-30T12:16:14;22.00;99.90
28524;DHT22;15734;50.904;6.922;2023-09-30T12:18:40;21.80;99.90
28524;DHT22;15734;50.904;6.922;2023-09-30T12:21:10;21.50;99.90
28524;DHT22;15734;50.904;6.922;2023-09-30T12:23:37;21.40;99.90
28524;DHT22;15734;50.904;6.922;2023-09-30T12:26:02;21.00;99.90
28524;DHT22;15734;50.904;6.922;2023-09-30T12:28:31;21.10;99.90
28524;DHT22;15734;50.904;6.922;2023-09-30T12:30:58;21.00;99.90
28524;DHT22;15734;50.904;6.922;2023-09-30T12:33:24;20.60;99.90
28524;DHT22;15734;50.904;6.922;2023-09-30T12:35:49;20.70;99.90
28524;DHT22;15734;50.904;6.922;2023-09-30T12:38:16;20.80;99.90
28524;DHT22;15734;50.904;6.922;2023-09-30T12:40:42;21.30;99.90
28524;DHT22;15734;50.904;6.922;2023-09-30T12:43:09;21.50;99.90
28524;DHT22;15734;50.904;6.922;2023-09-30T12:45:35;21.70;99.90
28524;DHT22;15734;50.904;6.922;2023-09-30T12:48:04;21.70;99.90
28524;DHT22;15734;50.904;6.922;2023-09-30T12:50:29;21.90;99.90
28524;DHT22;15734;50.904;6.922;2023-09-30T12:52:55;22.00;99.90
28524;DHT22;15734;50.904;6.922;2023-09-30T12:55:20;21.80;99.90
28524;DHT22;15734;50.904;6.922;2023-09-30T12:57:46;21.80;99.90
28524;DHT22;15734;50.904;6.922;2023-09-30T13:00:12;21.90;99.90
28524;DHT22;15734;50.904;6.922;2023-09-30T13:02:37;21.30;99.90
28524;DHT22;15734;50.904;6.922;2023-09-30T13:05:03;21.00;99.90
28524;DHT22;15734;50.904;6.922;2023-09-30T13:07:32;21.30;99.90
28524;DHT22;15734;50.904;6.922;2023-09-30T13:09:58;21.30;99.90
28524;DHT22;15734;50.904;6.922;2023-09-30T13:12:26;21.60;99.90
28524;DHT22;15734;50.904;6.922;2023-09-30T13:14:52;21.50;99.90
28524;DHT22;15734;50.904;6.922;2023-09-30T13:17:22;21.50;99.90
28524;DHT22;15734;50.904;6.922;2023-09-30T13:19:47;21.20;99.90
28524;DHT22;15734;50.904;6.922;2023-09-30T13:22:13;21.20;99.90
28524;DHT22;15734;50.904;6.922;2023-09-30T13:24:38;21.50;99.90
28524;DHT22;15734;50.904;6.922;2023-09-30T13:27:05;21.70;99.90
28524;DHT22;15734;50.904;6.922;2023-09-30T13:29:30;21.80;99.90
28524;DHT22;15734;50.904;6.922;2023-09-30T13:31:56;21.80;99.90
28524;DHT22;15734;50.904;6.922;2023-09-30T13:34:22;22.00;99.90
28524;DHT22;15734;50.904;6.922;2023-09-30T13:36:48;22.00;99.90
28524;DHT22;15734;50.904;6.922;2023-09-30T13:39:13;21.90;99.90
28524;DHT22;15734;50.904;6.922;2023-09-30T13:41:39;22.10;99.90
28524;DHT22;15734;50.904;6.922;2023-09-30T13:44:06;22.30;99.90
28524;DHT22;15734;50.904;6.922;2023-09-30T13:46:31;22.00;99.90
28524;DHT22;15734;50.904;6.922;2023-09-30T13:48:57;22.20;99.90
28524;DHT22;15734;50.904;6.922;2023-09-30T13:51:22;22.00;99.90
28524;DHT22;15734;50.904;6.922;2023-09-30T13:53:48;22.00;99.90
28524;DHT22;15734;50.904;6.922;2023-09-30T13:56:14;22.20;99.90
28524;DHT22;15734;50.904;6.922;2023-09-30T13:58:39;21.80;99.90
28524;DHT22;15734;50.904;6.922;2023-09-30T14:01:05;21.50;99.90
28524;DHT22;15734;50.904;6.922;2023-09-30T14:03:30;21.20;99.90
28524;DHT22;15734;50.904;6.922;2023-09-30T14:05:56;21.30;99.90
28524;DHT22;15734;50.904;6.922;2023-09-30T14:08:22;21.30;99.90
28524;DHT22;15734;50.904;6.922;2023-09-30T14:10:48;21.00;99.90
28524;DHT22;15734;50.904;6.922;2023-09-30T14:13:13;21.00;99.90
28524;DHT22;15734;50.904;6.922;2023-09-30T14:15:40;20.80;99.90
28524;DHT22;15734;50.904;6.922;2023-09-30T14:18:06;20.90;99.90
28524;DHT22;15734;50.904;6.922;2023-09-30T14:20:31;20.90;99.90
28524;DHT22;15734;50.904;6.922;2023-09-30T14:22:58;20.80;99.90
28524;DHT22;15734;50.904;6.922;2023-09-30T14:25:24;20.90;99.90
28524;DHT22;15734;50.904;6.922;2023-09-30T14:27:49;21.00;99.90
28524;DHT22;15734;50.904;6.922;2023-09-30T14:30:15;20.90;99.90
28524;DHT22;15734;50.904;6.922;2023-09-30T14:32:41;20.70;99.90
28524;DHT22;15734;50.904;6.922;2023-09-30T14:35:08;20.50;99.90
28524;DHT22;15734;50.904;6.922;2023-09-30T14:37:34;20.60;99.90
28524;DHT22;15734;50.904;6.922;2023-09-30T14:40:00;20.60;99.90
28524;DHT22;15734;50.904;6.922;2023-09-30T14:42:26;20.50;99.90
28524;DHT22;15734;50.904;6.922;2023-09-30T14:44:51;20.60;99.90
28524;DHT22;15734;50.904;6.922;2023-09-30T14:47:17;20.40;99.90
28524;DHT22;15734;50.904;6.922;2023-09-30T14:49:43;20.40;99.90
28524;DHT22;15734;50.904;6.922;2023-09-30T14:52:09;20.20;99.90
28524;DHT22;15734;50.904;6.922;2023-09-30T14:54:35;20.20;99.90
28524;DHT22;15734;50.904;6.922;2023-09-30T14:57:00;20.40;99.90
28524;DHT22;15734;50.904;6.922;2023-09-30T14:59:26;20.40;99.90
28524;DHT22;15734;50.904;6.922;2023-09-30T15:01:52;20.10;99.90
28524;DHT22;15734;50.904;6.922;2023-09-30T15:04:18;20.20;99.90
28524;DHT22;15734;50.904;6.922;2023-09-30T15:06:44;20.00;99.90
28524;DHT22;15734;50.904;6.922;2023-09-30T15:09:11;19.90;99.90
28524;DHT22;15734;50.904;6.922;2023-09-30T15:11:37;19.70;99.90
28524;DHT22;15734;50.904;6.922;2023-09-30T15:14:03;19.50;99.90
28524;DHT22;15734;50.904;6.922;2023-09-30T15:16:30;19.40;99.90
28524;DHT22;15734;50.904;6.922;2023-09-30T15:18:57;19.40;99.90
28524;DHT22;15734;50.904;6.922;2023-09-30T15:21:22;19.40;99.90
28524;DHT22;15734;50.904;6.922;2023-09-30T15:23:49;19.30;99.90
28524;DHT22;15734;50.904;6.922;2023-09-30T15:26:15;19.30;99.90
28524;DHT22;15734;50.904;6.922;2023-09-30T15:28:41;19.30;99.90
28524;DHT22;15734;50.904;6.922;2023-09-30T15:31:07;19.20;99.90
28524;DHT22;15734;50.904;6.922;2023-09-30T15:33:33;19.20;99.90
28524;DHT22;15734;50.904;6.922;2023-09-30T15:35:59;19.10;99.90
28524;DHT22;15734;50.904;6.922;2023-09-30T15:38:25;19.10;99.90
28524;DHT22;15734;50.904;6.922;2023-09-30T15:40:53;19.10;99.90
28524;DHT22;15734;50.904;6.922;2023-09-30T15:43:20;19.00;99.90
28524;DHT22;15734;50.904;6.922;2023-09-30T15:45:48;18.90;99.90
28524;DHT22;15734;50.904;6.922;2023-09-30T15:48:13;18.80;99.90
28524;DHT22;15734;50.904;6.922;2023-09-30T15:50:39;18.70;99.90
28524;DHT22;15734;50.904;6.922;2023-09-30T15:53:05;18.70;99.90
28524;DHT22;15734;50.904;6.922;2023-09-30T15:55:32;18.70;99.90
28524;DHT22;15734;50.904;6.922;2023-09-30T15:57:57;18.70;99.90
28524;DHT22;15734;50.904;6.922;2023-09-30T16:00:23;18.70;99.90
28524;DHT22;15734;50.904;6.922;2023-09-30T16:02:48;18.60;99.90
28524;DHT22;15734;50.904;6.922;2023-09-30T16:05:14;18.50;99.90
28524;DHT22;15734;50.904;6.922;2023-09-30T16:07:40;18.40;99.90
28524;DHT22;15734;50.904;6.922;2023-09-30T16:10:06;18.30;99.90
28524;DHT22;15734;50.904;6.922;2023-09-30T16:12:32;18.20;99.90
28524;DHT22;15734;50.904;6.922;2023-09-30T16:14:57;18.20;99.90
28524;DHT22;15734;50.904;6.922;2023-09-30T16:17:23;18.10;99.90
28524;DHT22;15734;50.904;6.922;2023-09-30T16:19:48;18.10;99.90
28524;DHT22;15734;50.904;6.922;2023-09-30T16:22:14;18.00;99.90
28524;DHT22;15734;50.904;6.922;2023-09-30T16:24:40;18.00;99.90
28524;DHT22;15734;50.904;6.922;2023-09-30T16:27:05;18.00;99.90
28524;DHT22;15734;50.904;6.922;2023-09-30T16:29:31;18.00;99.90
28524;DHT22;15734;50.904;6.922;2023-09-30T16:31:56;17.80;99.90
28524;DHT22;15734;50.904;6.922;2023-09-30T16:34:22;17.70;99.90
28524;DHT22;15734;50.904;6.922;2023-09-30T16:36:47;17.70;99.90
28524;DHT22;15734;50.904;6.922;2023-09-30T16:39:13;17.60;99.90
28524;DHT22;15734;50.904;6.922;2023-09-30T16:41:40;17.50;99.90
28524;DHT22;15734;50.904;6.922;2023-09-30T16:44:05;17.40;99.90
28524;DHT22;15734;50.904;6.922;2023-09-30T16:46:32;17.20;99.90
28524;DHT22;15734;50.904;6.922;2023-09-30T16:48:58;17.10;99.90
28524;DHT22;15734;50.904;6.922;2023-09-30T16:51:23;17.10;99.90
28524;DHT22;15734;50.904;6.922;2023-09-30T16:53:49;17.00;99.90
28524;DHT22;15734;50.904;6.922;2023-09-30T16:56:15;16.90;99.90
28524;DHT22;15734;50.904;6.922;2023-09-30T16:58:40;16.90;99.90
28524;DHT22;15734;50.904;6.922;2023-09-30T17:01:10;16.80;99.90
28524;DHT22;15734;50.904;6.922;2023-09-30T17:03:35;16.60;99.90
28524;DHT22;15734;50.904;6.922;2023-09-30T17:06:01;16.50;99.90
28524;DHT22;15734;50.904;6.922;2023-09-30T17:08:26;16.40;99.90
28524;DHT22;15734;50.904;6.922;2023-09-30T17:10:52;16.30;99.90
28524;DHT22;15734;50.904;6.922;2023-09-30T17:13:20;16.30;99.90
28524;DHT22;15734;50.904;6.922;2023-09-30T17:15:46;16.20;99.90
28524;DHT22;15734;50.904;6.922;2023-09-30T17:18:11;16.10;99.90
28524;DHT22;15734;50.904;6.922;2023-09-30T17:20:43;16.00;99.90
28524;DHT22;15734;50.904;6.922;2023-09-30T17:23:10;16.00;99.90
28524;DHT22;15734;50.904;6.922;2023-09-30T17:25:36;15.90;99.90
28524;DHT22;15734;50.904;6.922;2023-09-30T17:28:02;15.90;99.90
28524;DHT22;15734;50.904;6.922;2023-09-30T17:30:28;15.80;99.90
28524;DHT22;15734;50.904;6.922;2023-09-30T17:32:53;15.70;99.90
28524;DHT22;15734;50.904;6.922;2023-09-30T17:35:19;15.70;99.90
28524;DHT22;15734;50.904;6.922;2023-09-30T17:37:45;15.60;99.90
28524;DHT22;15734;50.904;6.922;2023-09-30T17:40:13;15.50;99.90
28524;DHT22;15734;50.904;6.922;2023-09-30T17:42:38;15.40;99.90
28524;DHT22;15734;50.904;6.922;2023-09-30T17:45:05;15.40;99.90
28524;DHT22;15734;50.904;6.922;2023-09-30T17:47:30;15.40;99.90
28524;DHT22;15734;50.904;6.922;2023-09-30T17:49:56;15.30;99.90
28524;DHT22;15734;50.904;6.922;2023-09-30T17:52:22;15.10;99.90
28524;DHT22;15734;50.904;6.922;2023-09-30T17:54:48;15.10;99.90
28524;DHT22;15734;50.904;6.922;2023-09-30T17:57:13;15.10;99.90
28524;DHT22;15734;50.904;6.922;2023-09-30T17:59:40;15.00;99.90
28524;DHT22;15734;50.904;6.922;2023-09-30T18:02:05;14.90;99.90
28524;DHT22;15734;50.904;6.922;2023-09-30T18:04:31;14.90;99.90
28524;DHT22;15734;50.904;6.922;2023-09-30T18:06:56;14.80;99.90
28524;DHT22;15734;50.904;6.922;2023-09-30T18:09:22;14.70;99.90
28524;DHT22;15734;50.904;6.922;2023-09-30T18:11:48;14.60;99.90
28524;DHT22;15734;50.904;6.922;2023-09-30T18:14:14;14.60;99.90
28524;DHT22;15734;50.904;6.922;2023-09-30T18:16:42;14.50;99.90
28524;DHT22;15734;50.904;6.922;2023-09-30T18:19:09;14.40;99.90
28524;DHT22;15734;50.904;6.922;2023-09-30T18:21:35;14.30;99.90
28524;DHT22;15734;50.904;6.922;2023-09-30T18:24:00;14.30;99.90
28524;DHT22;15734;50.904;6.922;2023-09-30T18:26:26;14.30;99.90
28524;DHT22;15734;50.904;6.922;2023-09-30T18:28:51;14.20;99.90
28524;DHT22;15734;50.904;6.922;2023-09-30T18:31:19;14.10;99.90
28524;DHT22;15734;50.904;6.922;2023-09-30T18:33:45;14.10;99.90
28524;DHT22;15734;50.904;6.922;2023-09-30T18:36:10;14.00;99.90
28524;DHT22;15734;50.904;6.922;2023-09-30T18:38:37;14.00;99.90
28524;DHT22;15734;50.904;6.922;2023-09-30T18:41:14;13.90;99.90
28524;DHT22;15734;50.904;6.922;2023-09-30T18:43:50;13.90;99.90
28524;DHT22;15734;50.904;6.922;2023-09-30T18:46:16;13.90;99.90
28524;DHT22;15734;50.904;6.922;2023-09-30T18:48:42;13.80;99.90
28524;DHT22;15734;50.904;6.922;2023-09-30T18:51:08;13.80;99.90
28524;DHT22;15734;50.904;6.922;2023-09-30T18:53:35;13.70;99.90
28524;DHT22;15734;50.904;6.922;2023-09-30T18:56:01;13.70;99.90
28524;DHT22;15734;50.904;6.922;2023-09-30T18:58:27;13.60;99.90
28524;DHT22;15734;50.904;6.922;2023-09-30T19:00:53;13.60;99.90
28524;DHT22;15734;50.904;6.922;2023-09-30T19:03:19;13.60;99.90
28524;DHT22;15734;50.904;6.922;2023-09-30T19:05:44;13.50;99.90
28524;DHT22;15734;50.904;6.922;2023-09-30T19:08:13;13.50;99.90
28524;DHT22;15734;50.904;6.922;2023-09-30T19:10:39;13.50;99.90
28524;DHT22;15734;50.904;6.922;2023-09-30T19:13:05;13.40;99.90